Wuhan, China
Current Conditions -  °F | °C
As of 12:00 PM on Sunday 21 Dec 2014 (Local Time) from ZHHH Reporting Station
Clear Clear  
Wind Chill: 42°   Ceiling: Unl
Heat Index: 46°   Visibility: 6mi
Dew Point: 10°   Wind: 9mph
Humidity: 23%   Direction: 360°N
Pressure: 30.59"   Gusts: NA
Location:  30.58°N, 114.27°E
Report Text: ZHHH 210400Z 36004MPS 310V060 CAVOK 08/M12 Q1036 NOSIG
Loading
Personal Weather Stations






























Interactive Weather Map New forecast layout! Learn more

10-Day Weather Forecast

Advertisements
Track Severe Weather on mobile